createdAt,value
2022-12-13T00:01:32.115Z,17.604138
2022-12-13T00:06:33.864Z,17.59487
2022-12-13T00:11:35.723Z,17.663722
2022-12-13T00:16:37.711Z,17.70937
2022-12-13T00:21:39.561Z,17.052806
2022-12-13T00:26:41.478Z,17.93206
2022-12-13T00:32:00.540Z,17.56001
2022-12-13T00:37:03.673Z,17.128104
2022-12-13T00:49:15.898Z,16.925782
2022-12-13T00:54:17.954Z,17.408356
2022-12-13T00:59:19.693Z,17.499272
2022-12-13T01:04:21.431Z,18.011958
2022-12-13T01:09:23.998Z,17.65729
2022-12-13T01:14:25.523Z,17.190768
2022-12-13T01:19:27.049Z,17.657548
2022-12-13T01:24:28.599Z,17.08996
2022-12-13T01:29:30.120Z,18.051852
2022-12-13T01:34:31.704Z,17.48957
2022-12-13T01:39:38.076Z,17.44323
2022-12-13T01:44:40.062Z,17.535652
2022-12-13T01:49:41.561Z,17.722708
2022-12-13T01:54:46.659Z,17.225994
2022-12-13T01:59:48.794Z,17.254246
2022-12-13T02:04:50.428Z,17.350726
2022-12-13T02:09:56.794Z,17.54686
2022-12-13T02:15:00.601Z,17.571218
2022-12-13T02:20:02.786Z,17.534946
2022-12-13T02:25:04.737Z,16.93372
2022-12-13T02:30:06.748Z,16.464308
2022-12-13T02:35:08.515Z,16.492546
2022-12-13T02:40:10.450Z,16.131976
2022-12-13T02:45:18.651Z,17.152814
2022-12-13T02:50:22.793Z,16.41638
2022-12-13T02:55:28.110Z,17.119528
2022-12-13T03:00:30.268Z,16.739974
2022-12-13T03:05:31.752Z,17.145758
2022-12-13T03:10:33.468Z,16.643494
2022-12-13T03:15:35.058Z,16.84104
2022-12-13T03:20:36.502Z,17.19872
2022-12-13T03:25:38.276Z,17.04936
2022-12-13T03:30:39.775Z,16.963302
2022-12-13T03:35:44.467Z,17.88785
2022-12-13T03:40:47.340Z,18.042774
2022-12-13T03:45:49.208Z,17.875936
2022-12-13T03:50:51.039Z,16.976722
2022-12-13T03:55:52.749Z,17.25194
2022-12-13T04:00:54.519Z,16.657796
2022-12-13T04:05:56.358Z,16.653468
2022-12-13T04:10:58.461Z,17.660628
2022-12-13T04:16:00.444Z,17.343222
2022-12-13T04:21:02.567Z,17.323804
2022-12-13T04:26:04.360Z,17.33793
2022-12-13T04:31:06.330Z,17.288672
2022-12-13T04:36:08.671Z,17.43616
2022-12-13T04:41:10.790Z,17.128362
2022-12-13T04:46:13.222Z,17.377906
2022-12-13T04:51:15.279Z,17.512774
2022-12-13T04:56:17.217Z,17.90948
2022-12-13T05:01:19.796Z,18.307136
2022-12-13T05:06:27.182Z,17.928722
2022-12-13T05:11:35.535Z,17.708216
2022-12-13T05:16:37.684Z,17.437598
2022-12-13T05:21:39.213Z,17.666286
2022-12-13T05:26:40.738Z,17.694362
2022-12-13T05:31:42.406Z,17.43962
2022-12-13T05:36:43.883Z,17.67953
2022-12-13T05:41:45.783Z,17.426634
2022-12-13T05:46:47.276Z,16.913704
2022-12-13T05:51:48.911Z,16.60174
2022-12-13T05:56:50.559Z,16.747572
2022-12-13T06:01:52.196Z,17.130844
2022-12-13T06:06:53.728Z,17.898814
2022-12-13T06:12:00.750Z,18.127882
2022-12-13T06:17:03.134Z,18.036328
2022-12-13T06:22:04.692Z,18.15745
2022-12-13T06:27:06.294Z,18.414132
2022-12-13T06:32:07.735Z,18.532608
2022-12-13T06:37:09.236Z,18.835372
2022-12-13T06:42:11.045Z,19.730014
2022-12-13T06:47:12.941Z,18.450146
2022-12-13T06:52:34.146Z,18.503732
2022-12-13T06:57:36.035Z,19.30587
2022-12-13T07:02:38.312Z,18.491112
2022-12-13T07:07:40.873Z,19.105488
2022-12-13T07:12:42.987Z,18.437716
2022-12-13T07:17:45.018Z,18.29875
2022-12-13T07:22:48.483Z,18.86874
2022-12-13T07:27:51.396Z,18.823906
2022-12-13T07:32:53.201Z,19.050762
2022-12-13T07:37:55.074Z,18.666146
2022-12-13T07:42:59.553Z,18.844206
2022-12-13T07:48:01.456Z,18.325238
2022-12-13T07:53:03.250Z,18.928134
2022-12-13T07:58:05.050Z,18.771378
2022-12-13T08:03:06.843Z,19.683606
2022-12-13T08:08:08.720Z,19.017666
2022-12-13T08:13:10.780Z,19.540678
2022-12-13T08:18:12.558Z,19.038848
2022-12-13T08:23:14.463Z,19.12667
2022-12-13T08:28:16.347Z,19.0135
2022-12-13T08:33:18.677Z,18.97043
2022-12-13T08:38:22.741Z,19.51879
2022-12-13T08:43:25.490Z,19.82952
2022-12-13T08:48:27.215Z,19.70354
2022-12-13T08:53:31.760Z,19.470496
2022-12-13T08:58:42.390Z,18.738282
2022-12-13T09:03:43.871Z,19.242934
2022-12-13T09:08:45.366Z,19.236136
2022-12-13T09:13:54.080Z,19.436518
2022-12-13T09:19:06.541Z,20.023524
2022-12-13T09:24:27.118Z,19.482858
2022-12-13T09:29:28.624Z,20.193456
2022-12-13T09:34:30.170Z,19.81671
2022-12-13T09:39:31.664Z,20.515584
2022-12-13T09:44:43.948Z,19.377368
2022-12-13T09:49:52.724Z,20.577
2022-12-13T09:54:55.252Z,20.52397
2022-12-13T10:00:00.031Z,20.63387
2022-12-13T10:05:03.657Z,20.513888
2022-12-13T10:10:05.325Z,20.956514
2022-12-13T10:15:07.661Z,21.091328
2022-12-13T10:20:09.156Z,21.586292
2022-12-13T10:25:10.659Z,21.86877
2022-12-13T10:30:12.167Z,21.780052
2022-12-13T10:35:13.628Z,22.835332
2022-12-13T10:40:15.112Z,22.932436
2022-12-13T10:45:34.480Z,23.26656
2022-12-13T10:50:36.241Z,21.887252
2022-12-13T10:55:37.788Z,22.959412
2022-12-13T11:00:39.778Z,23.16373
2022-12-13T11:05:41.592Z,23.261906
2022-12-13T11:10:43.431Z,23.108352
2022-12-13T11:15:45.317Z,24.762866
2022-12-13T11:20:54.075Z,22.554034
2022-12-13T11:25:56.056Z,23.232826
2022-12-13T11:30:57.868Z,22.713124
2022-12-13T11:36:03.463Z,24.628432
2022-12-13T11:41:05.525Z,24.703662
2022-12-13T11:46:07.609Z,24.38901
2022-12-13T11:51:09.296Z,23.960414
2022-12-13T11:56:11.318Z,23.392418
2022-12-13T12:01:13.359Z,23.961554
2022-12-13T12:06:15.235Z,24.127266
2022-12-13T12:11:17.052Z,24.002792
2022-12-13T12:16:19.131Z,24.392728
2022-12-13T12:21:20.988Z,24.811852
2022-12-13T12:26:22.902Z,25.256094
2022-12-13T12:31:24.771Z,25.812882
2022-12-13T12:36:26.673Z,24.485422
2022-12-13T12:41:28.272Z,25.01754
2022-12-13T12:46:31.194Z,24.69552
2022-12-13T12:51:33.010Z,25.058982
2022-12-13T12:56:34.656Z,25.06825
2022-12-13T13:01:43.545Z,24.960278
2022-12-13T13:06:46.251Z,24.983264
2022-12-13T13:11:50.912Z,24.07562
2022-12-13T13:16:59.453Z,24.81667
2022-12-13T13:22:02.549Z,23.781608
2022-12-13T13:27:04.489Z,23.509958
2022-12-13T13:32:06.585Z,22.962452
2022-12-13T13:37:08.366Z,22.693896
2022-12-13T13:42:10.163Z,22.47605
2022-12-13T13:47:12.985Z,22.94549
2022-12-13T13:52:26.491Z,22.81244
2022-12-13T13:57:45.547Z,23.167692
2022-12-13T14:03:22.351Z,22.652224
2022-12-13T14:08:30.942Z,23.036664
2022-12-13T14:13:32.389Z,22.41671
2022-12-13T14:18:34.246Z,22.369488
2022-12-13T14:23:35.777Z,22.135806
2022-12-13T14:28:37.365Z,22.377684
2022-12-13T14:33:38.889Z,22.27925
2022-12-13T14:38:49.464Z,20.492706
2022-12-13T14:43:51.264Z,19.600764
2022-12-13T14:48:53.512Z,19.373284
2022-12-13T14:53:55.470Z,18.839416
2022-12-13T14:58:57.513Z,18.814082
2022-12-13T15:03:59.701Z,18.330612
2022-12-13T15:09:02.603Z,18.369014
2022-12-13T15:14:07.146Z,18.219572
2022-12-13T15:19:13.296Z,18.478574
2022-12-13T15:24:31.664Z,19.187584
2022-12-13T15:29:33.160Z,18.822576
2022-12-13T15:34:34.680Z,19.699564
2022-12-13T15:39:36.178Z,19.612176
2022-12-13T15:44:37.741Z,19.135938
2022-12-13T15:49:40.191Z,19.56414
2022-12-13T15:54:42.089Z,19.14389
2022-12-13T15:59:43.913Z,19.50385
2022-12-13T16:04:45.750Z,19.075988
2022-12-13T16:09:47.559Z,19.419366
2022-12-13T16:14:50.123Z,19.039988
2022-12-13T16:19:52.446Z,19.010596
2022-12-13T16:24:54.412Z,19.264198
2022-12-13T16:29:56.176Z,19.179646
2022-12-13T16:34:57.964Z,19.346036
2022-12-13T16:39:59.890Z,18.936262
2022-12-13T16:45:32.778Z,19.039282
2022-12-13T16:50:42.108Z,18.9082
2022-12-13T16:55:43.583Z,18.955422
2022-12-13T17:00:59.993Z,19.183174
2022-12-13T17:06:01.958Z,18.74508
2022-12-13T17:11:06.039Z,19.715644
2022-12-13T17:16:08.267Z,19.018914
2022-12-13T17:21:09.945Z,19.122002
2022-12-13T17:26:11.408Z,19.328816
2022-12-13T17:31:12.998Z,19.254414
2022-12-13T17:36:14.527Z,19.186254
2022-12-13T17:41:16.088Z,18.85479
2022-12-13T17:46:17.581Z,18.943074
2022-12-13T17:51:19.356Z,18.594838
2022-12-13T17:56:20.901Z,19.017734
2022-12-13T18:01:22.653Z,19.00776
2022-12-13T18:06:24.614Z,18.66236
2022-12-13T18:11:34.372Z,18.755936
2022-12-13T18:16:38.397Z,18.546978
2022-12-13T18:21:40.942Z,18.71577
2022-12-13T18:26:42.397Z,18.620172
2022-12-13T18:31:44.440Z,18.693258
2022-12-13T18:36:46.016Z,18.690164
2022-12-13T18:41:47.522Z,18.69855
2022-12-13T18:46:49.113Z,18.477244
2022-12-13T18:51:51.044Z,18.435762
2022-12-13T18:56:52.457Z,18.36444
2022-12-13T19:01:54.165Z,18.787268
2022-12-13T19:06:55.812Z,18.602342
2022-12-13T19:12:18.944Z,18.33399
2022-12-13T19:17:20.881Z,18.41572
2022-12-13T19:22:23.620Z,18.411486
2022-12-13T19:27:25.646Z,18.115072
2022-12-13T19:32:27.583Z,17.816976
2022-12-13T19:37:29.232Z,18.49384
2022-12-13T19:42:30.718Z,17.916984
2022-12-13T19:47:32.213Z,18.009406
2022-12-13T19:52:33.984Z,18.004738
2022-12-13T19:57:38.029Z,18.223656
2022-12-13T20:02:39.562Z,17.981792
2022-12-13T20:07:41.052Z,18.017982
2022-12-13T20:12:42.718Z,17.920878
2022-12-13T20:17:44.266Z,18.153732
2022-12-13T20:22:48.373Z,17.626934
2022-12-13T20:27:59.327Z,17.90507
2022-12-13T20:33:03.557Z,18.2886
2022-12-13T20:38:05.042Z,17.87082
2022-12-13T20:43:07.054Z,18.027508
2022-12-13T20:55:22.375Z,18.21641
2022-12-13T21:00:24.445Z,18.086902
2022-12-13T21:05:26.194Z,18.46206
2022-12-13T21:10:28.185Z,18.15745
2022-12-13T21:15:29.713Z,18.510612
2022-12-13T21:20:31.412Z,18.069438
2022-12-13T21:25:33.111Z,18.207658
2022-12-13T21:30:35.194Z,18.245978
2022-12-13T21:35:36.650Z,18.296552
2022-12-13T21:40:38.419Z,17.732682
2022-12-13T21:45:40.212Z,18.205636
2022-12-13T21:50:41.965Z,18.140054
2022-12-13T21:55:44.019Z,17.988306
2022-12-13T22:00:49.901Z,18.021144
2022-12-13T22:05:51.722Z,17.991576
2022-12-13T22:10:53.727Z,17.761626
2022-12-13T22:15:55.476Z,18.050902
2022-12-13T22:20:57.179Z,18.026002
2022-12-13T22:25:59.254Z,18.27845
2022-12-13T22:31:00.879Z,17.4879
2022-12-13T22:36:02.561Z,17.613772
2022-12-13T22:41:04.518Z,17.298198
2022-12-13T22:46:06.341Z,17.540252
2022-12-13T22:51:08.250Z,17.47562
2022-12-13T22:56:10.348Z,17.230676
2022-12-13T23:01:12.404Z,17.427258
2022-12-13T23:06:14.413Z,16.972216
2022-12-13T23:11:16.467Z,17.161376
2022-12-13T23:16:18.441Z,17.449322
2022-12-13T23:21:20.229Z,17.321592
2022-12-13T23:26:22.675Z,16.678802
2022-12-13T23:31:24.482Z,17.324686
2022-12-13T23:36:26.253Z,16.93011
2022-12-13T23:41:33.330Z,15.648954
2022-12-13T23:46:35.419Z,16.935484
2022-12-13T23:51:36.954Z,16.668652
2022-12-13T23:56:38.815Z,16.71738
